sensor_id;sensor_type;location;lat;lon;timestamp;temperature;humidity
3136;DHT22;1578;47.658;9.922;2022-10-16T00:00:37;12.10;93.40
3136;DHT22;1578;47.658;9.922;2022-10-16T00:03:04;12.00;93.30
3136;DHT22;1578;47.658;9.922;2022-10-16T00:05:29;12.00;93.30
3136;DHT22;1578;47.658;9.922;2022-10-16T00:07:55;12.00;92.90
3136;DHT22;1578;47.658;9.922;2022-10-16T00:10:21;12.00;92.70
3136;DHT22;1578;47.658;9.922;2022-10-16T00:12:47;12.00;92.80
3136;DHT22;1578;47.658;9.922;2022-10-16T00:15:13;12.10;92.30
3136;DHT22;1578;47.658;9.922;2022-10-16T00:17:38;12.00;91.70
3136;DHT22;1578;47.658;9.922;2022-10-16T00:20:04;12.00;91.90
3136;DHT22;1578;47.658;9.922;2022-10-16T00:22:30;12.00;92.40
3136;DHT22;1578;47.658;9.922;2022-10-16T00:24:56;11.90;92.40
3136;DHT22;1578;47.658;9.922;2022-10-16T00:27:22;11.90;93.00
3136;DHT22;1578;47.658;9.922;2022-10-16T00:29:51;11.90;93.10
3136;DHT22;1578;47.658;9.922;2022-10-16T00:32:20;12.00;93.60
3136;DHT22;1578;47.658;9.922;2022-10-16T00:34:46;11.90;93.20
3136;DHT22;1578;47.658;9.922;2022-10-16T00:37:13;11.90;93.40
3136;DHT22;1578;47.658;9.922;2022-10-16T00:39:38;11.90;93.70
3136;DHT22;1578;47.658;9.922;2022-10-16T00:42:05;12.00;93.60
3136;DHT22;1578;47.658;9.922;2022-10-16T00:44:52;12.00;93.60
3136;DHT22;1578;47.658;9.922;2022-10-16T00:47:29;12.00;92.90
3136;DHT22;1578;47.658;9.922;2022-10-16T00:50:09;12.00;93.00
3136;DHT22;1578;47.658;9.922;2022-10-16T00:52:39;11.90;93.50
3136;DHT22;1578;47.658;9.922;2022-10-16T00:55:08;11.90;93.30
3136;DHT22;1578;47.658;9.922;2022-10-16T00:57:35;11.80;93.40
3136;DHT22;1578;47.658;9.922;2022-10-16T01:00:04;11.90;93.70
3136;DHT22;1578;47.658;9.922;2022-10-16T01:02:30;11.90;93.30
3136;DHT22;1578;47.658;9.922;2022-10-16T01:04:56;11.90;93.50
3136;DHT22;1578;47.658;9.922;2022-10-16T01:07:43;12.00;93.30
3136;DHT22;1578;47.658;9.922;2022-10-16T01:10:30;12.00;92.70
3136;DHT22;1578;47.658;9.922;2022-10-16T01:13:07;12.10;92.80
3136;DHT22;1578;47.658;9.922;2022-10-16T01:15:54;12.10;92.80
3136;DHT22;1578;47.658;9.922;2022-10-16T01:20:59;12.10;93.30
3136;DHT22;1578;47.658;9.922;2022-10-16T01:24:30;12.10;92.90
3136;DHT22;1578;47.658;9.922;2022-10-16T01:32:01;12.20;93.30
3136;DHT22;1578;47.658;9.922;2022-10-16T01:34:42;12.20;93.00
3136;DHT22;1578;47.658;9.922;2022-10-16T01:37:14;12.20;92.50
3136;DHT22;1578;47.658;9.922;2022-10-16T01:39:42;12.20;92.30
3136;DHT22;1578;47.658;9.922;2022-10-16T01:42:21;12.10;92.90
3136;DHT22;1578;47.658;9.922;2022-10-16T01:44:48;12.20;92.60
3136;DHT22;1578;47.658;9.922;2022-10-16T01:47:15;12.10;92.60
3136;DHT22;1578;47.658;9.922;2022-10-16T01:49:43;12.10;93.10
3136;DHT22;1578;47.658;9.922;2022-10-16T01:52:14;12.10;93.30
3136;DHT22;1578;47.658;9.922;2022-10-16T01:54:43;12.00;93.50
3136;DHT22;1578;47.658;9.922;2022-10-16T01:57:12;12.10;93.60
3136;DHT22;1578;47.658;9.922;2022-10-16T01:59:43;12.10;93.40
3136;DHT22;1578;47.658;9.922;2022-10-16T02:02:10;12.10;93.00
3136;DHT22;1578;47.658;9.922;2022-10-16T02:05:03;12.00;93.00
3136;DHT22;1578;47.658;9.922;2022-10-16T02:07:30;11.90;93.10
3136;DHT22;1578;47.658;9.922;2022-10-16T02:09:56;11.90;93.50
3136;DHT22;1578;47.658;9.922;2022-10-16T02:12:33;11.90;93.50
3136;DHT22;1578;47.658;9.922;2022-10-16T02:14:59;11.90;93.60
3136;DHT22;1578;47.658;9.922;2022-10-16T02:17:25;12.00;93.60
3136;DHT22;1578;47.658;9.922;2022-10-16T02:19:53;11.90;93.50
3136;DHT22;1578;47.658;9.922;2022-10-16T02:22:30;11.90;93.60
3136;DHT22;1578;47.658;9.922;2022-10-16T02:30:20;12.20;93.30
3136;DHT22;1578;47.658;9.922;2022-10-16T02:32:48;12.20;92.80
3136;DHT22;1578;47.658;9.922;2022-10-16T02:35:17;12.10;92.90
3136;DHT22;1578;47.658;9.922;2022-10-16T02:37:43;12.20;92.70
3136;DHT22;1578;47.658;9.922;2022-10-16T02:40:10;12.10;92.10
3136;DHT22;1578;47.658;9.922;2022-10-16T02:42:38;12.10;92.20
3136;DHT22;1578;47.658;9.922;2022-10-16T02:45:05;12.00;91.90
3136;DHT22;1578;47.658;9.922;2022-10-16T02:47:31;12.00;92.00
3136;DHT22;1578;47.658;9.922;2022-10-16T02:49:57;12.00;92.70
3136;DHT22;1578;47.658;9.922;2022-10-16T02:52:22;12.00;93.00
3136;DHT22;1578;47.658;9.922;2022-10-16T02:54:48;12.10;93.10
3136;DHT22;1578;47.658;9.922;2022-10-16T02:57:14;12.10;91.80
3136;DHT22;1578;47.658;9.922;2022-10-16T02:59:40;12.10;91.80
3136;DHT22;1578;47.658;9.922;2022-10-16T03:02:05;12.10;92.40
3136;DHT22;1578;47.658;9.922;2022-10-16T03:04:31;12.10;92.30
3136;DHT22;1578;47.658;9.922;2022-10-16T03:06:57;12.10;92.20
3136;DHT22;1578;47.658;9.922;2022-10-16T03:09:22;12.10;92.00
3136;DHT22;1578;47.658;9.922;2022-10-16T03:11:48;12.20;91.90
3136;DHT22;1578;47.658;9.922;2022-10-16T03:14:14;12.20;91.70
3136;DHT22;1578;47.658;9.922;2022-10-16T03:16:39;12.10;91.80
3136;DHT22;1578;47.658;9.922;2022-10-16T03:19:05;12.10;92.20
3136;DHT22;1578;47.658;9.922;2022-10-16T03:21:30;12.10;92.00
3136;DHT22;1578;47.658;9.922;2022-10-16T03:23:56;12.10;92.80
3136;DHT22;1578;47.658;9.922;2022-10-16T03:26:22;12.10;92.60
3136;DHT22;1578;47.658;9.922;2022-10-16T03:28:47;12.10;92.30
3136;DHT22;1578;47.658;9.922;2022-10-16T03:31:13;11.90;93.10
3136;DHT22;1578;47.658;9.922;2022-10-16T03:33:39;11.80;93.60
3136;DHT22;1578;47.658;9.922;2022-10-16T03:36:04;11.70;94.00
3136;DHT22;1578;47.658;9.922;2022-10-16T03:38:30;11.70;94.70
3136;DHT22;1578;47.658;9.922;2022-10-16T03:40:56;11.80;94.50
3136;DHT22;1578;47.658;9.922;2022-10-16T03:43:21;11.80;94.20
3136;DHT22;1578;47.658;9.922;2022-10-16T03:45:47;11.80;94.30
3136;DHT22;1578;47.658;9.922;2022-10-16T03:48:12;11.80;94.30
3136;DHT22;1578;47.658;9.922;2022-10-16T03:50:38;11.90;94.30
3136;DHT22;1578;47.658;9.922;2022-10-16T03:53:04;12.00;94.00
3136;DHT22;1578;47.658;9.922;2022-10-16T03:55:29;11.90;93.00
3136;DHT22;1578;47.658;9.922;2022-10-16T03:57:55;11.80;92.70
3136;DHT22;1578;47.658;9.922;2022-10-16T04:00:21;11.80;93.50
3136;DHT22;1578;47.658;9.922;2022-10-16T04:02:46;11.90;93.50
3136;DHT22;1578;47.658;9.922;2022-10-16T04:05:12;11.90;93.20
3136;DHT22;1578;47.658;9.922;2022-10-16T04:07:37;11.90;93.20
3136;DHT22;1578;47.658;9.922;2022-10-16T04:10:05;11.90;93.70
3136;DHT22;1578;47.658;9.922;2022-10-16T04:12:31;11.90;93.50
3136;DHT22;1578;47.658;9.922;2022-10-16T04:14:56;11.80;93.50
3136;DHT22;1578;47.658;9.922;2022-10-16T04:17:22;11.70;93.50
3136;DHT22;1578;47.658;9.922;2022-10-16T04:19:48;11.70;93.50
3136;DHT22;1578;47.658;9.922;2022-10-16T04:22:13;11.70;94.10
3136;DHT22;1578;47.658;9.922;2022-10-16T04:24:39;11.70;94.00
3136;DHT22;1578;47.658;9.922;2022-10-16T04:27:05;11.70;94.60
3136;DHT22;1578;47.658;9.922;2022-10-16T04:29:30;11.70;94.60
3136;DHT22;1578;47.658;9.922;2022-10-16T04:31:56;11.90;94.80
3136;DHT22;1578;47.658;9.922;2022-10-16T04:34:22;11.90;94.90
3136;DHT22;1578;47.658;9.922;2022-10-16T04:36:48;12.10;93.20
3136;DHT22;1578;47.658;9.922;2022-10-16T04:39:17;12.10;92.20
3136;DHT22;1578;47.658;9.922;2022-10-16T04:41:42;12.00;92.40
3136;DHT22;1578;47.658;9.922;2022-10-16T04:44:08;11.90;92.80
3136;DHT22;1578;47.658;9.922;2022-10-16T04:46:34;11.90;93.00
3136;DHT22;1578;47.658;9.922;2022-10-16T04:48:59;11.90;93.20
3136;DHT22;1578;47.658;9.922;2022-10-16T04:51:25;11.90;92.90
3136;DHT22;1578;47.658;9.922;2022-10-16T04:53:52;12.00;93.00
3136;DHT22;1578;47.658;9.922;2022-10-16T04:56:18;11.90;92.40
3136;DHT22;1578;47.658;9.922;2022-10-16T04:58:43;11.80;92.60
3136;DHT22;1578;47.658;9.922;2022-10-16T05:01:09;11.80;92.90
3136;DHT22;1578;47.658;9.922;2022-10-16T05:03:35;11.90;93.00
3136;DHT22;1578;47.658;9.922;2022-10-16T05:06:01;11.90;92.40
3136;DHT22;1578;47.658;9.922;2022-10-16T05:08:26;11.80;91.90
3136;DHT22;1578;47.658;9.922;2022-10-16T05:10:52;11.80;91.80
3136;DHT22;1578;47.658;9.922;2022-10-16T05:13:17;11.70;92.40
3136;DHT22;1578;47.658;9.922;2022-10-16T05:15:47;11.80;91.40
3136;DHT22;1578;47.658;9.922;2022-10-16T05:18:13;11.80;91.40
3136;DHT22;1578;47.658;9.922;2022-10-16T05:20:39;11.70;92.10
3136;DHT22;1578;47.658;9.922;2022-10-16T05:23:05;11.60;92.50
3136;DHT22;1578;47.658;9.922;2022-10-16T05:25:30;11.60;92.70
3136;DHT22;1578;47.658;9.922;2022-10-16T05:27:56;11.50;93.10
3136;DHT22;1578;47.658;9.922;2022-10-16T05:30:22;11.60;93.40
3136;DHT22;1578;47.658;9.922;2022-10-16T05:32:49;11.60;93.40
3136;DHT22;1578;47.658;9.922;2022-10-16T05:35:15;11.60;93.40
3136;DHT22;1578;47.658;9.922;2022-10-16T05:37:41;11.70;93.50
3136;DHT22;1578;47.658;9.922;2022-10-16T05:40:07;11.70;93.60
3136;DHT22;1578;47.658;9.922;2022-10-16T05:42:33;11.80;92.90
3136;DHT22;1578;47.658;9.922;2022-10-16T05:44:58;11.80;93.20
3136;DHT22;1578;47.658;9.922;2022-10-16T05:47:24;11.80;93.10
3136;DHT22;1578;47.658;9.922;2022-10-16T05:49:50;11.90;93.20
3136;DHT22;1578;47.658;9.922;2022-10-16T05:52:15;11.90;93.20
3136;DHT22;1578;47.658;9.922;2022-10-16T05:54:41;12.00;93.30
3136;DHT22;1578;47.658;9.922;2022-10-16T05:57:07;11.90;93.50
3136;DHT22;1578;47.658;9.922;2022-10-16T05:59:32;12.00;93.20
3136;DHT22;1578;47.658;9.922;2022-10-16T06:01:58;12.00;92.70
3136;DHT22;1578;47.658;9.922;2022-10-16T06:04:23;12.00;93.00
3136;DHT22;1578;47.658;9.922;2022-10-16T06:06:49;12.00;92.90
3136;DHT22;1578;47.658;9.922;2022-10-16T06:09:15;11.90;93.00
3136;DHT22;1578;47.658;9.922;2022-10-16T06:11:40;11.80;93.50
3136;DHT22;1578;47.658;9.922;2022-10-16T06:14:06;11.80;93.50
3136;DHT22;1578;47.658;9.922;2022-10-16T06:16:36;11.80;93.80
3136;DHT22;1578;47.658;9.922;2022-10-16T06:19:03;11.80;94.20
3136;DHT22;1578;47.658;9.922;2022-10-16T06:21:32;11.90;94.50
3136;DHT22;1578;47.658;9.922;2022-10-16T06:23:58;12.00;94.00
3136;DHT22;1578;47.658;9.922;2022-10-16T06:26:26;12.10;93.70
3136;DHT22;1578;47.658;9.922;2022-10-16T06:28:54;12.20;93.60
3136;DHT22;1578;47.658;9.922;2022-10-16T06:31:20;12.20;93.10
3136;DHT22;1578;47.658;9.922;2022-10-16T06:33:50;12.20;92.50
3136;DHT22;1578;47.658;9.922;2022-10-16T06:36:17;12.20;93.00
3136;DHT22;1578;47.658;9.922;2022-10-16T06:38:43;12.20;93.40
3136;DHT22;1578;47.658;9.922;2022-10-16T06:41:18;12.20;93.70
3136;DHT22;1578;47.658;9.922;2022-10-16T06:43:44;12.20;93.70
3136;DHT22;1578;47.658;9.922;2022-10-16T06:46:12;12.10;93.80
3136;DHT22;1578;47.658;9.922;2022-10-16T06:48:38;12.20;93.70
3136;DHT22;1578;47.658;9.922;2022-10-16T06:51:10;12.30;93.70
3136;DHT22;1578;47.658;9.922;2022-10-16T06:53:38;12.40;92.90
3136;DHT22;1578;47.658;9.922;2022-10-16T06:56:13;12.50;91.90
3136;DHT22;1578;47.658;9.922;2022-10-16T06:58:39;12.30;92.30
3136;DHT22;1578;47.658;9.922;2022-10-16T07:01:06;12.30;92.90
3136;DHT22;1578;47.658;9.922;2022-10-16T07:03:32;12.30;93.60
3136;DHT22;1578;47.658;9.922;2022-10-16T07:06:03;12.40;94.00
3136;DHT22;1578;47.658;9.922;2022-10-16T07:08:33;12.50;93.80
3136;DHT22;1578;47.658;9.922;2022-10-16T07:11:01;12.60;94.00
3136;DHT22;1578;47.658;9.922;2022-10-16T07:13:27;12.80;93.20
3136;DHT22;1578;47.658;9.922;2022-10-16T07:15:53;12.80;92.60
3136;DHT22;1578;47.658;9.922;2022-10-16T07:18:18;12.90;92.00
3136;DHT22;1578;47.658;9.922;2022-10-16T07:20:44;13.00;91.80
3136;DHT22;1578;47.658;9.922;2022-10-16T07:23:10;13.20;92.10
3136;DHT22;1578;47.658;9.922;2022-10-16T07:25:37;13.20;92.90
3136;DHT22;1578;47.658;9.922;2022-10-16T07:28:03;13.30;93.60
3136;DHT22;1578;47.658;9.922;2022-10-16T07:30:28;13.40;94.70
3136;DHT22;1578;47.658;9.922;2022-10-16T07:32:54;13.80;95.90
3136;DHT22;1578;47.658;9.922;2022-10-16T07:35:19;14.10;95.00
3136;DHT22;1578;47.658;9.922;2022-10-16T07:37:46;14.40;94.60
3136;DHT22;1578;47.658;9.922;2022-10-16T07:40:11;14.70;92.30
3136;DHT22;1578;47.658;9.922;2022-10-16T07:42:37;15.00;88.60
3136;DHT22;1578;47.658;9.922;2022-10-16T07:45:03;15.20;85.60
3136;DHT22;1578;47.658;9.922;2022-10-16T07:47:29;15.40;83.70
3136;DHT22;1578;47.658;9.922;2022-10-16T07:49:55;15.50;83.90
3136;DHT22;1578;47.658;9.922;2022-10-16T07:52:21;15.80;80.80
3136;DHT22;1578;47.658;9.922;2022-10-16T07:54:46;16.20;80.10
3136;DHT22;1578;47.658;9.922;2022-10-16T07:57:12;16.70;78.00
3136;DHT22;1578;47.658;9.922;2022-10-16T07:59:44;17.00;73.80
3136;DHT22;1578;47.658;9.922;2022-10-16T08:02:10;17.10;68.70
3136;DHT22;1578;47.658;9.922;2022-10-16T08:04:36;17.10;65.30
3136;DHT22;1578;47.658;9.922;2022-10-16T08:07:01;17.00;62.20
3136;DHT22;1578;47.658;9.922;2022-10-16T08:09:27;17.00;61.30
3136;DHT22;1578;47.658;9.922;2022-10-16T08:11:53;17.10;57.70
3136;DHT22;1578;47.658;9.922;2022-10-16T08:14:18;17.10;62.30
3136;DHT22;1578;47.658;9.922;2022-10-16T08:16:45;17.10;69.00
3136;DHT22;1578;47.658;9.922;2022-10-16T08:19:10;17.10;70.80
3136;DHT22;1578;47.658;9.922;2022-10-16T08:21:36;17.10;71.00
3136;DHT22;1578;47.658;9.922;2022-10-16T08:24:01;17.10;72.80
3136;DHT22;1578;47.658;9.922;2022-10-16T08:26:27;17.20;67.30
3136;DHT22;1578;47.658;9.922;2022-10-16T08:28:54;17.20;70.60
3136;DHT22;1578;47.658;9.922;2022-10-16T08:31:21;17.30;68.50
3136;DHT22;1578;47.658;9.922;2022-10-16T08:33:47;17.40;71.60
3136;DHT22;1578;47.658;9.922;2022-10-16T08:36:14;17.70;61.80
3136;DHT22;1578;47.658;9.922;2022-10-16T08:38:40;18.30;64.60
3136;DHT22;1578;47.658;9.922;2022-10-16T08:41:32;18.70;58.10
3136;DHT22;1578;47.658;9.922;2022-10-16T08:44:20;18.90;53.90
3136;DHT22;1578;47.658;9.922;2022-10-16T08:47:02;19.00;53.30
3136;DHT22;1578;47.658;9.922;2022-10-16T08:49:31;19.10;46.30
3136;DHT22;1578;47.658;9.922;2022-10-16T08:51:57;19.00;49.10
3136;DHT22;1578;47.658;9.922;2022-10-16T08:54:37;19.10;51.20
3136;DHT22;1578;47.658;9.922;2022-10-16T08:57:19;19.30;44.30
3136;DHT22;1578;47.658;9.922;2022-10-16T08:59:45;19.50;44.30
3136;DHT22;1578;47.658;9.922;2022-10-16T09:04:54;20.00;42.90
3136;DHT22;1578;47.658;9.922;2022-10-16T09:07:43;20.20;41.40
3136;DHT22;1578;47.658;9.922;2022-10-16T09:13:07;20.60;38.60
3136;DHT22;1578;47.658;9.922;2022-10-16T09:15:58;20.70;33.30
3136;DHT22;1578;47.658;9.922;2022-10-16T09:21:31;21.00;40.30
3136;DHT22;1578;47.658;9.922;2022-10-16T09:24:12;21.30;38.00
3136;DHT22;1578;47.658;9.922;2022-10-16T09:26:39;21.60;37.40
3136;DHT22;1578;47.658;9.922;2022-10-16T09:29:04;21.90;37.30
3136;DHT22;1578;47.658;9.922;2022-10-16T09:31:30;22.10;32.60
3136;DHT22;1578;47.658;9.922;2022-10-16T09:34:00;22.20;33.50
3136;DHT22;1578;47.658;9.922;2022-10-16T09:36:39;22.20;30.50
3136;DHT22;1578;47.658;9.922;2022-10-16T09:39:08;22.10;30.90
3136;DHT22;1578;47.658;9.922;2022-10-16T09:41:37;22.00;29.20
3136;DHT22;1578;47.658;9.922;2022-10-16T09:44:04;22.00;26.50
3136;DHT22;1578;47.658;9.922;2022-10-16T09:46:36;21.90;30.10
3136;DHT22;1578;47.658;9.922;2022-10-16T09:49:26;22.00;25.80
3136;DHT22;1578;47.658;9.922;2022-10-16T09:51:51;22.00;28.80
3136;DHT22;1578;47.658;9.922;2022-10-16T09:54:27;22.00;28.00
3136;DHT22;1578;47.658;9.922;2022-10-16T09:57:04;21.70;24.30
3136;DHT22;1578;47.658;9.922;2022-10-16T09:59:31;21.50;30.00
3136;DHT22;1578;47.658;9.922;2022-10-16T10:02:01;21.40;30.00
3136;DHT22;1578;47.658;9.922;2022-10-16T10:04:38;21.40;28.00
3136;DHT22;1578;47.658;9.922;2022-10-16T10:07:07;21.40;31.40
3136;DHT22;1578;47.658;9.922;2022-10-16T10:09:44;21.30;28.40
3136;DHT22;1578;47.658;9.922;2022-10-16T10:12:20;21.50;31.00
3136;DHT22;1578;47.658;9.922;2022-10-16T10:14:52;21.70;31.00
3136;DHT22;1578;47.658;9.922;2022-10-16T10:17:19;21.80;30.10
3136;DHT22;1578;47.658;9.922;2022-10-16T10:19:52;22.00;28.40
3136;DHT22;1578;47.658;9.922;2022-10-16T10:22:26;21.90;25.80
3136;DHT22;1578;47.658;9.922;2022-10-16T10:36:40;22.10;28.60
3136;DHT22;1578;47.658;9.922;2022-10-16T10:41:43;21.90;25.40
3136;DHT22;1578;47.658;9.922;2022-10-16T10:55:24;22.20;26.20
3136;DHT22;1578;47.658;9.922;2022-10-16T11:00:57;22.30;24.70
3136;DHT22;1578;47.658;9.922;2022-10-16T11:06:26;22.30;27.00
3136;DHT22;1578;47.658;9.922;2022-10-16T11:09:41;22.40;27.80
3136;DHT22;1578;47.658;9.922;2022-10-16T11:11:50;22.40;24.00
3136;DHT22;1578;47.658;9.922;2022-10-16T11:17:15;22.80;25.20
3136;DHT22;1578;47.658;9.922;2022-10-16T11:20:56;23.10;23.30
3136;DHT22;1578;47.658;9.922;2022-10-16T11:23:25;23.60;22.10
3136;DHT22;1578;47.658;9.922;2022-10-16T11:25:54;24.40;17.90
3136;DHT22;1578;47.658;9.922;2022-10-16T11:28:34;24.50;18.00
3136;DHT22;1578;47.658;9.922;2022-10-16T11:34:24;27.30;15.80
3136;DHT22;1578;47.658;9.922;2022-10-16T11:39:23;30.10;10.40
3136;DHT22;1578;47.658;9.922;2022-10-16T11:50:22;31.50;1.90
3136;DHT22;1578;47.658;9.922;2022-10-16T11:55:43;31.90;1.30
3136;DHT22;1578;47.658;9.922;2022-10-16T12:03:34;29.20;4.90
3136;DHT22;1578;47.658;9.922;2022-10-16T12:08:33;30.90;1.00
3136;DHT22;1578;47.658;9.922;2022-10-16T12:13:46;32.40;2.10
3136;DHT22;1578;47.658;9.922;2022-10-16T12:18:49;32.30;1.00
3136;DHT22;1578;47.658;9.922;2022-10-16T12:21:16;31.40;1.00
3136;DHT22;1578;47.658;9.922;2022-10-16T12:23:56;30.90;1.40
3136;DHT22;1578;47.658;9.922;2022-10-16T12:26:28;30.10;2.10
3136;DHT22;1578;47.658;9.922;2022-10-16T12:29:12;29.60;3.60
3136;DHT22;1578;47.658;9.922;2022-10-16T12:31:46;28.90;4.80
3136;DHT22;1578;47.658;9.922;2022-10-16T12:34:39;28.30;2.90
3136;DHT22;1578;47.658;9.922;2022-10-16T12:39:35;27.40;2.60
3136;DHT22;1578;47.658;9.922;2022-10-16T12:44:44;26.60;8.00
3136;DHT22;1578;47.658;9.922;2022-10-16T12:47:20;26.10;4.80
3136;DHT22;1578;47.658;9.922;2022-10-16T12:49:52;25.40;8.00
3136;DHT22;1578;47.658;9.922;2022-10-16T12:52:36;25.00;9.00
3136;DHT22;1578;47.658;9.922;2022-10-16T12:55:03;24.80;9.80
3136;DHT22;1578;47.658;9.922;2022-10-16T12:58:18;25.00;10.80
3136;DHT22;1578;47.658;9.922;2022-10-16T13:00:45;25.10;10.60
3136;DHT22;1578;47.658;9.922;2022-10-16T13:09:18;25.30;11.50
3136;DHT22;1578;47.658;9.922;2022-10-16T13:19:54;25.20;8.90
3136;DHT22;1578;47.658;9.922;2022-10-16T13:22:45;25.20;10.80
3136;DHT22;1578;47.658;9.922;2022-10-16T13:25:28;25.20;8.70
3136;DHT22;1578;47.658;9.922;2022-10-16T13:27:59;25.20;10.00
3136;DHT22;1578;47.658;9.922;2022-10-16T13:30:44;25.20;10.00
3136;DHT22;1578;47.658;9.922;2022-10-16T13:35:57;25.10;11.00
3136;DHT22;1578;47.658;9.922;2022-10-16T13:38:27;25.00;9.90
3136;DHT22;1578;47.658;9.922;2022-10-16T13:40:58;25.10;10.20
3136;DHT22;1578;47.658;9.922;2022-10-16T13:43:48;25.00;9.90
3136;DHT22;1578;47.658;9.922;2022-10-16T13:46:16;24.90;9.10
3136;DHT22;1578;47.658;9.922;2022-10-16T13:48:42;24.90;9.80
3136;DHT22;1578;47.658;9.922;2022-10-16T13:51:15;24.80;9.80
3136;DHT22;1578;47.658;9.922;2022-10-16T13:53:41;24.80;11.30
3136;DHT22;1578;47.658;9.922;2022-10-16T13:56:13;24.80;11.30
3136;DHT22;1578;47.658;9.922;2022-10-16T13:58:40;24.70;9.00
3136;DHT22;1578;47.658;9.922;2022-10-16T14:01:25;24.50;11.10
3136;DHT22;1578;47.658;9.922;2022-10-16T14:03:51;24.30;11.00
3136;DHT22;1578;47.658;9.922;2022-10-16T14:06:20;24.20;11.90
3136;DHT22;1578;47.658;9.922;2022-10-16T14:09:02;24.10;13.90
3136;DHT22;1578;47.658;9.922;2022-10-16T14:11:29;24.10;13.60
3136;DHT22;1578;47.658;9.922;2022-10-16T14:13:55;24.00;14.20
3136;DHT22;1578;47.658;9.922;2022-10-16T14:16:23;23.90;13.70
3136;DHT22;1578;47.658;9.922;2022-10-16T14:19:04;23.90;12.10
3136;DHT22;1578;47.658;9.922;2022-10-16T14:21:36;23.80;10.30
3136;DHT22;1578;47.658;9.922;2022-10-16T14:24:13;23.70;13.20
3136;DHT22;1578;47.658;9.922;2022-10-16T14:26:43;23.60;14.00
3136;DHT22;1578;47.658;9.922;2022-10-16T14:29:14;23.40;12.60
3136;DHT22;1578;47.658;9.922;2022-10-16T14:31:42;23.30;15.30
3136;DHT22;1578;47.658;9.922;2022-10-16T14:34:35;23.30;15.20
3136;DHT22;1578;47.658;9.922;2022-10-16T14:37:20;23.20;15.00
3136;DHT22;1578;47.658;9.922;2022-10-16T14:39:51;23.10;17.00
3136;DHT22;1578;47.658;9.922;2022-10-16T14:42:18;23.10;17.80
3136;DHT22;1578;47.658;9.922;2022-10-16T14:44:45;23.10;17.90
3136;DHT22;1578;47.658;9.922;2022-10-16T14:47:17;23.10;17.00
3136;DHT22;1578;47.658;9.922;2022-10-16T14:49:47;23.10;19.00
3136;DHT22;1578;47.658;9.922;2022-10-16T14:52:13;23.10;19.80
3136;DHT22;1578;47.658;9.922;2022-10-16T14:54:40;23.10;18.10
3136;DHT22;1578;47.658;9.922;2022-10-16T14:57:19;23.10;19.00
3136;DHT22;1578;47.658;9.922;2022-10-16T14:59:46;23.10;19.10
3136;DHT22;1578;47.658;9.922;2022-10-16T15:02:33;23.00;19.70
3136;DHT22;1578;47.658;9.922;2022-10-16T15:05:18;22.80;19.80
3136;DHT22;1578;47.658;9.922;2022-10-16T15:07:46;22.70;17.40
3136;DHT22;1578;47.658;9.922;2022-10-16T15:10:16;22.50;20.10
3136;DHT22;1578;47.658;9.922;2022-10-16T15:12:43;22.50;21.50
3136;DHT22;1578;47.658;9.922;2022-10-16T15:15:37;22.30;21.40
3136;DHT22;1578;47.658;9.922;2022-10-16T15:18:04;22.30;21.90
3136;DHT22;1578;47.658;9.922;2022-10-16T15:20:33;22.20;22.10
3136;DHT22;1578;47.658;9.922;2022-10-16T15:23:13;21.80;23.50
3136;DHT22;1578;47.658;9.922;2022-10-16T15:25:45;21.60;26.60
3136;DHT22;1578;47.658;9.922;2022-10-16T15:28:14;21.40;28.80
3136;DHT22;1578;47.658;9.922;2022-10-16T15:30:42;21.20;30.50
3136;DHT22;1578;47.658;9.922;2022-10-16T15:33:18;21.10;31.60
3136;DHT22;1578;47.658;9.922;2022-10-16T15:35:51;20.90;32.00
3136;DHT22;1578;47.658;9.922;2022-10-16T15:38:18;20.80;33.20
3136;DHT22;1578;47.658;9.922;2022-10-16T15:40:44;20.60;35.00
3136;DHT22;1578;47.658;9.922;2022-10-16T15:43:09;20.40;36.60
3136;DHT22;1578;47.658;9.922;2022-10-16T15:45:36;20.30;37.80
3136;DHT22;1578;47.658;9.922;2022-10-16T15:48:02;20.20;39.20
3136;DHT22;1578;47.658;9.922;2022-10-16T15:50:31;20.00;39.80
3136;DHT22;1578;47.658;9.922;2022-10-16T15:52:57;19.90;40.10
3136;DHT22;1578;47.658;9.922;2022-10-16T15:55:23;19.80;41.00
3136;DHT22;1578;47.658;9.922;2022-10-16T15:57:49;19.60;41.80
3136;DHT22;1578;47.658;9.922;2022-10-16T16:00:17;19.60;41.60
3136;DHT22;1578;47.658;9.922;2022-10-16T16:02:51;19.40;42.40
3136;DHT22;1578;47.658;9.922;2022-10-16T16:05:18;19.30;43.00
3136;DHT22;1578;47.658;9.922;2022-10-16T16:07:44;19.20;43.50
3136;DHT22;1578;47.658;9.922;2022-10-16T16:10:11;19.10;44.50
3136;DHT22;1578;47.658;9.922;2022-10-16T16:12:37;18.90;44.10
3136;DHT22;1578;47.658;9.922;2022-10-16T16:15:05;18.70;46.00
3136;DHT22;1578;47.658;9.922;2022-10-16T16:17:31;18.50;47.10
3136;DHT22;1578;47.658;9.922;2022-10-16T16:19:57;18.30;47.50
3136;DHT22;1578;47.658;9.922;2022-10-16T16:22:23;18.30;48.40
3136;DHT22;1578;47.658;9.922;2022-10-16T16:24:49;18.10;49.10
3136;DHT22;1578;47.658;9.922;2022-10-16T16:27:15;18.00;50.20
3136;DHT22;1578;47.658;9.922;2022-10-16T16:29:40;17.80;48.90
3136;DHT22;1578;47.658;9.922;2022-10-16T16:32:06;17.70;49.70
3136;DHT22;1578;47.658;9.922;2022-10-16T16:34:35;17.60;50.50
3136;DHT22;1578;47.658;9.922;2022-10-16T16:37:04;17.50;50.40
3136;DHT22;1578;47.658;9.922;2022-10-16T16:39:30;17.40;50.40
3136;DHT22;1578;47.658;9.922;2022-10-16T16:41:57;17.30;51.50
3136;DHT22;1578;47.658;9.922;2022-10-16T16:44:24;17.20;52.60
3136;DHT22;1578;47.658;9.922;2022-10-16T16:46:50;17.00;52.90
3136;DHT22;1578;47.658;9.922;2022-10-16T16:49:17;16.80;54.30
3136;DHT22;1578;47.658;9.922;2022-10-16T16:51:43;16.70;55.90
3136;DHT22;1578;47.658;9.922;2022-10-16T16:54:10;16.60;57.20
3136;DHT22;1578;47.658;9.922;2022-10-16T16:56:37;16.40;57.00
3136;DHT22;1578;47.658;9.922;2022-10-16T16:59:03;16.30;58.10
3136;DHT22;1578;47.658;9.922;2022-10-16T17:01:29;16.20;58.20
3136;DHT22;1578;47.658;9.922;2022-10-16T17:03:58;16.20;58.10
3136;DHT22;1578;47.658;9.922;2022-10-16T17:06:28;16.10;58.90
3136;DHT22;1578;47.658;9.922;2022-10-16T17:08:57;16.00;59.30
3136;DHT22;1578;47.658;9.922;2022-10-16T17:11:25;15.90;60.70
3136;DHT22;1578;47.658;9.922;2022-10-16T17:13:52;15.70;63.30
3136;DHT22;1578;47.658;9.922;2022-10-16T17:16:20;15.60;65.00
3136;DHT22;1578;47.658;9.922;2022-10-16T17:18:47;15.50;64.40
3136;DHT22;1578;47.658;9.922;2022-10-16T17:21:12;15.40;64.00
3136;DHT22;1578;47.658;9.922;2022-10-16T17:23:38;15.40;64.40
3136;DHT22;1578;47.658;9.922;2022-10-16T17:26:22;15.30;64.40
3136;DHT22;1578;47.658;9.922;2022-10-16T17:28:53;15.30;63.20
3136;DHT22;1578;47.658;9.922;2022-10-16T17:31:24;15.30;62.20
3136;DHT22;1578;47.658;9.922;2022-10-16T17:33:51;15.10;63.40
3136;DHT22;1578;47.658;9.922;2022-10-16T17:36:18;15.10;64.40
3136;DHT22;1578;47.658;9.922;2022-10-16T17:38:44;15.00;65.20
3136;DHT22;1578;47.658;9.922;2022-10-16T17:41:21;14.90;65.50
3136;DHT22;1578;47.658;9.922;2022-10-16T17:43:48;14.80;65.50
3136;DHT22;1578;47.658;9.922;2022-10-16T17:46:17;14.70;66.60
3136;DHT22;1578;47.658;9.922;2022-10-16T17:48:46;14.60;67.80
3136;DHT22;1578;47.658;9.922;2022-10-16T17:51:14;14.50;69.20
3136;DHT22;1578;47.658;9.922;2022-10-16T17:53:40;14.50;69.30
3136;DHT22;1578;47.658;9.922;2022-10-16T17:56:08;14.30;70.70
3136;DHT22;1578;47.658;9.922;2022-10-16T17:58:34;14.20;71.20
3136;DHT22;1578;47.658;9.922;2022-10-16T18:01:01;14.20;71.00
3136;DHT22;1578;47.658;9.922;2022-10-16T18:03:27;14.20;69.70
3136;DHT22;1578;47.658;9.922;2022-10-16T18:05:54;14.10;69.50